sensor_id;sensor_type;location;lat;lon;timestamp;pressure;altitude;pressure_sealevel;temperature;humidity
8894;BME280;4483;48.622;9.230;2023-01-23T00:02:08;99021.63;;;1.14;100.00
8894;BME280;4483;48.622;9.230;2023-01-23T00:04:34;99016.47;;;1.06;100.00
8894;BME280;4483;48.622;9.230;2023-01-23T00:07:01;99019.00;;;1.06;100.00
8894;BME280;4483;48.622;9.230;2023-01-23T00:09:28;99027.41;;;1.03;100.00
8894;BME280;4483;48.622;9.230;2023-01-23T00:11:56;99028.25;;;1.02;100.00
8894;BME280;4483;48.622;9.230;2023-01-23T00:14:23;99023.13;;;1.01;100.00
8894;BME280;4483;48.622;9.230;2023-01-23T00:16:50;99023.06;;;0.95;100.00
8894;BME280;4483;48.622;9.230;2023-01-23T00:19:17;99030.69;;;0.96;100.00
8894;BME280;4483;48.622;9.230;2023-01-23T00:21:43;99034.91;;;0.96;100.00
8894;BME280;4483;48.622;9.230;2023-01-23T00:24:11;99030.66;;;0.95;100.00
8894;BME280;4483;48.622;9.230;2023-01-23T00:26:37;99026.41;;;0.95;100.00
8894;BME280;4483;48.622;9.230;2023-01-23T00:29:05;99027.28;;;0.96;100.00
8894;BME280;4483;48.622;9.230;2023-01-23T00:31:33;99021.41;;;0.97;100.00
8894;BME280;4483;48.622;9.230;2023-01-23T00:34:02;99023.94;;;0.98;100.00
8894;BME280;4483;48.622;9.230;2023-01-23T00:36:30;99022.22;;;0.97;100.00
8894;BME280;4483;48.622;9.230;2023-01-23T00:38:58;99024.75;;;0.97;100.00
8894;BME280;4483;48.622;9.230;2023-01-23T00:41:25;99024.75;;;0.97;100.00
8894;BME280;4483;48.622;9.230;2023-01-23T00:43:51;99025.66;;;1.01;100.00
8894;BME280;4483;48.622;9.230;2023-01-23T00:46:20;99030.72;;;0.99;100.00
8894;BME280;4483;48.622;9.230;2023-01-23T00:48:47;99028.16;;;0.98;100.00
8894;BME280;4483;48.622;9.230;2023-01-23T00:51:14;99032.44;;;1.00;100.00
8894;BME280;4483;48.622;9.230;2023-01-23T00:53:40;99031.56;;;0.98;100.00
8894;BME280;4483;48.622;9.230;2023-01-23T00:56:07;99029.91;;;1.00;100.00
8894;BME280;4483;48.622;9.230;2023-01-23T00:58:34;99028.19;;;1.01;100.00
8894;BME280;4483;48.622;9.230;2023-01-23T01:01:01;99024.84;;;1.00;100.00
8894;BME280;4483;48.622;9.230;2023-01-23T01:03:29;99028.19;;;0.99;100.00
8894;BME280;4483;48.622;9.230;2023-01-23T01:05:56;99036.69;;;1.01;100.00
8894;BME280;4483;48.622;9.230;2023-01-23T01:08:23;99037.53;;;1.00;100.00
8894;BME280;4483;48.622;9.230;2023-01-23T01:10:49;99043.44;;;1.01;100.00
8894;BME280;4483;48.622;9.230;2023-01-23T01:13:16;99034.94;;;0.99;100.00
8894;BME280;4483;48.622;9.230;2023-01-23T01:15:45;99040.00;;;0.99;100.00
8894;BME280;4483;48.622;9.230;2023-01-23T01:18:13;99049.41;;;1.04;100.00
8894;BME280;4483;48.622;9.230;2023-01-23T01:20:41;99054.47;;;1.04;100.00
8894;BME280;4483;48.622;9.230;2023-01-23T01:23:09;99065.50;;;1.05;100.00
8894;BME280;4483;48.622;9.230;2023-01-23T01:25:36;99061.25;;;1.04;100.00
8894;BME280;4483;48.622;9.230;2023-01-23T01:28:03;99067.22;;;1.06;100.00
8894;BME280;4483;48.622;9.230;2023-01-23T01:30:30;99054.53;;;1.06;100.00
8894;BME280;4483;48.622;9.230;2023-01-23T01:32:58;99062.97;;;1.07;100.00
8894;BME280;4483;48.622;9.230;2023-01-23T01:35:24;99065.50;;;1.07;100.00
8894;BME280;4483;48.622;9.230;2023-01-23T01:37:52;99067.16;;;1.04;100.00
8894;BME280;4483;48.622;9.230;2023-01-23T01:40:27;99062.97;;;1.05;100.00
8894;BME280;4483;48.622;9.230;2023-01-23T01:42:58;99064.63;;;1.04;100.00
8894;BME280;4483;48.622;9.230;2023-01-23T01:46:01;99067.16;;;1.04;100.00
8894;BME280;4483;48.622;9.230;2023-01-23T01:48:31;99062.97;;;1.07;100.00
8894;BME280;4483;48.622;9.230;2023-01-23T01:51:00;99064.69;;;1.08;100.00
8894;BME280;4483;48.622;9.230;2023-01-23T01:53:32;99075.66;;;1.07;100.00
8894;BME280;4483;48.622;9.230;2023-01-23T01:55:59;99073.09;;;1.05;100.00
8894;BME280;4483;48.622;9.230;2023-01-23T01:58:26;99077.31;;;1.04;100.00
8894;BME280;4483;48.622;9.230;2023-01-23T02:00:55;99078.19;;;1.05;100.00
8894;BME280;4483;48.622;9.230;2023-01-23T02:03:22;99082.34;;;1.01;100.00
8894;BME280;4483;48.622;9.230;2023-01-23T02:05:49;99081.50;;;1.01;100.00
8894;BME280;4483;48.622;9.230;2023-01-23T02:08:21;99078.13;;;1.00;100.00
8894;BME280;4483;48.622;9.230;2023-01-23T02:10:50;99073.03;;;1.00;100.00
8894;BME280;4483;48.622;9.230;2023-01-23T02:13:20;99076.38;;;0.98;100.00
8894;BME280;4483;48.622;9.230;2023-01-23T02:15:49;99076.41;;;0.99;100.00
8894;BME280;4483;48.622;9.230;2023-01-23T02:18:16;99072.16;;;0.98;100.00
8894;BME280;4483;48.622;9.230;2023-01-23T02:20:43;99069.63;;;0.98;100.00
8894;BME280;4483;48.622;9.230;2023-01-23T02:23:13;99071.31;;;0.99;100.00
8894;BME280;4483;48.622;9.230;2023-01-23T02:25:51;99068.81;;;1.01;100.00
8894;BME280;4483;48.622;9.230;2023-01-23T02:28:20;99064.59;;;1.03;100.00
8894;BME280;4483;48.622;9.230;2023-01-23T02:30:46;99062.16;;;1.06;100.00
8894;BME280;4483;48.622;9.230;2023-01-23T02:33:49;99059.63;;;1.09;100.00
8894;BME280;4483;48.622;9.230;2023-01-23T02:36:18;99061.34;;;1.10;100.00
8894;BME280;4483;48.622;9.230;2023-01-23T02:39:02;99058.88;;;1.15;100.00
8894;BME280;4483;48.622;9.230;2023-01-23T02:41:32;99054.69;;;1.17;100.00
8894;BME280;4483;48.622;9.230;2023-01-23T02:44:02;99057.22;;;1.15;100.00
8894;BME280;4483;48.622;9.230;2023-01-23T02:46:30;99063.97;;;1.16;100.00
8894;BME280;4483;48.622;9.230;2023-01-23T02:48:57;99063.97;;;1.16;100.00
8894;BME280;4483;48.622;9.230;2023-01-23T02:51:23;99066.53;;;1.16;100.00
8894;BME280;4483;48.622;9.230;2023-01-23T02:53:50;99069.91;;;1.15;100.00
8894;BME280;4483;48.622;9.230;2023-01-23T02:56:17;99069.84;;;1.14;100.00
8894;BME280;4483;48.622;9.230;2023-01-23T02:58:45;99071.53;;;1.12;100.00
8894;BME280;4483;48.622;9.230;2023-01-23T03:01:29;99069.81;;;1.11;100.00
8894;BME280;4483;48.622;9.230;2023-01-23T03:04:00;99071.50;;;1.10;100.00
8894;BME280;4483;48.622;9.230;2023-01-23T03:06:28;99075.72;;;1.10;100.00
8894;BME280;4483;48.622;9.230;2023-01-23T03:09:01;99075.75;;;1.11;100.00
8894;BME280;4483;48.622;9.230;2023-01-23T03:11:28;99071.53;;;1.12;100.00
8894;BME280;4483;48.622;9.230;2023-01-23T03:13:56;99075.78;;;1.14;100.00
8894;BME280;4483;48.622;9.230;2023-01-23T03:16:22;99074.09;;;1.13;100.00
8894;BME280;4483;48.622;9.230;2023-01-23T03:18:49;99073.22;;;1.13;100.00
8894;BME280;4483;48.622;9.230;2023-01-23T03:21:16;99069.84;;;1.12;100.00
8894;BME280;4483;48.622;9.230;2023-01-23T03:23:42;99070.69;;;1.13;100.00
8894;BME280;4483;48.622;9.230;2023-01-23T03:26:12;99059.66;;;1.11;100.00
8894;BME280;4483;48.622;9.230;2023-01-23T03:28:39;99061.38;;;1.12;100.00
8894;BME280;4483;48.622;9.230;2023-01-23T03:31:24;99067.31;;;1.14;100.00
8894;BME280;4483;48.622;9.230;2023-01-23T03:33:51;99060.53;;;1.13;100.00
8894;BME280;4483;48.622;9.230;2023-01-23T03:36:17;99058.88;;;1.15;100.00
8894;BME280;4483;48.622;9.230;2023-01-23T03:38:44;99063.97;;;1.16;100.00
8894;BME280;4483;48.622;9.230;2023-01-23T03:41:25;99064.84;;;1.17;100.00
8894;BME280;4483;48.622;9.230;2023-01-23T03:43:51;99064.84;;;1.17;100.00
8894;BME280;4483;48.622;9.230;2023-01-23T03:46:18;99061.47;;;1.18;100.00
8894;BME280;4483;48.622;9.230;2023-01-23T03:48:46;99060.66;;;1.19;100.00
8894;BME280;4483;48.622;9.230;2023-01-23T03:51:13;99065.75;;;1.20;100.00
8894;BME280;4483;48.622;9.230;2023-01-23T03:53:40;99065.75;;;1.22;100.00
8894;BME280;4483;48.622;9.230;2023-01-23T03:56:06;99064.06;;;1.21;100.00
8894;BME280;4483;48.622;9.230;2023-01-23T03:58:33;99064.06;;;1.21;100.00
8894;BME280;4483;48.622;9.230;2023-01-23T04:01:00;99069.97;;;1.20;100.00
8894;BME280;4483;48.622;9.230;2023-01-23T04:03:28;99074.16;;;1.18;100.00
8894;BME280;4483;48.622;9.230;2023-01-23T04:05:57;99070.78;;;1.17;100.00
8894;BME280;4483;48.622;9.230;2023-01-23T04:08:23;99074.13;;;1.15;100.00
8894;BME280;4483;48.622;9.230;2023-01-23T04:10:50;99086.00;;;1.17;100.00
8894;BME280;4483;48.622;9.230;2023-01-23T04:13:17;99087.72;;;1.20;100.00
8894;BME280;4483;48.622;9.230;2023-01-23T04:15:43;99089.38;;;1.18;100.00
8894;BME280;4483;48.622;9.230;2023-01-23T04:18:10;99093.66;;;1.19;100.00
8894;BME280;4483;48.622;9.230;2023-01-23T04:20:37;99097.00;;;1.18;100.00
8894;BME280;4483;48.622;9.230;2023-01-23T04:23:05;99093.56;;;1.16;100.00
8894;BME280;4483;48.622;9.230;2023-01-23T04:25:31;99085.03;;;1.11;100.00
8894;BME280;4483;48.622;9.230;2023-01-23T04:27:58;99096.91;;;1.12;100.00
8894;BME280;4483;48.622;9.230;2023-01-23T04:30:24;99098.56;;;1.10;100.00
8894;BME280;4483;48.622;9.230;2023-01-23T04:32:51;99105.28;;;1.06;100.00
8894;BME280;4483;48.622;9.230;2023-01-23T04:35:18;99095.09;;;1.04;100.00
8894;BME280;4483;48.622;9.230;2023-01-23T04:37:44;99094.22;;;1.02;100.00
8894;BME280;4483;48.622;9.230;2023-01-23T04:40:13;99090.75;;;0.99;100.00
8894;BME280;4483;48.622;9.230;2023-01-23T04:42:39;99089.94;;;0.98;100.00
8894;BME280;4483;48.622;9.230;2023-01-23T04:45:07;99102.69;;;1.03;100.00
8894;BME280;4483;48.622;9.230;2023-01-23T04:47:34;99103.53;;;1.02;100.00
8894;BME280;4483;48.622;9.230;2023-01-23T04:50:01;99099.31;;;1.04;100.00
8894;BME280;4483;48.622;9.230;2023-01-23T04:52:27;99097.69;;;1.06;100.00
8894;BME280;4483;48.622;9.230;2023-01-23T04:54:54;99101.91;;;1.07;100.00
8894;BME280;4483;48.622;9.230;2023-01-23T04:57:22;99106.22;;;1.11;100.00
8894;BME280;4483;48.622;9.230;2023-01-23T04:59:49;99113.84;;;1.13;100.00
8894;BME280;4483;48.622;9.230;2023-01-23T05:02:16;99109.63;;;1.13;100.00
8894;BME280;4483;48.622;9.230;2023-01-23T05:04:42;99103.66;;;1.10;100.00
8894;BME280;4483;48.622;9.230;2023-01-23T05:07:09;99103.66;;;1.11;100.00
8894;BME280;4483;48.622;9.230;2023-01-23T05:09:36;99102.00;;;1.12;100.00
8894;BME280;4483;48.622;9.230;2023-01-23T05:12:04;99106.19;;;1.10;100.00
8894;BME280;4483;48.622;9.230;2023-01-23T05:14:32;99096.09;;;1.14;100.00
8894;BME280;4483;48.622;9.230;2023-01-23T05:16:58;99092.69;;;1.14;100.00
8894;BME280;4483;48.622;9.230;2023-01-23T05:19:25;99095.31;;;1.17;100.00
8894;BME280;4483;48.622;9.230;2023-01-23T05:21:52;99096.16;;;1.17;100.00
8894;BME280;4483;48.622;9.230;2023-01-23T05:24:18;99097.00;;;1.18;100.00
8894;BME280;4483;48.622;9.230;2023-01-23T05:26:45;99092.81;;;1.20;100.00
8894;BME280;4483;48.622;9.230;2023-01-23T05:29:11;99092.78;;;1.18;100.00
8894;BME280;4483;48.622;9.230;2023-01-23T05:31:39;99099.56;;;1.19;100.00
8894;BME280;4483;48.622;9.230;2023-01-23T05:34:06;99098.72;;;1.19;100.00
8894;BME280;4483;48.622;9.230;2023-01-23T05:36:33;99092.81;;;1.21;100.00
8894;BME280;4483;48.622;9.230;2023-01-23T05:38:59;99093.66;;;1.20;100.00
8894;BME280;4483;48.622;9.230;2023-01-23T05:41:26;99093.56;;;1.16;100.00
8894;BME280;4483;48.622;9.230;2023-01-23T05:43:52;99097.75;;;1.12;100.00
8894;BME280;4483;48.622;9.230;2023-01-23T05:46:19;99102.78;;;1.09;100.00
8894;BME280;4483;48.622;9.230;2023-01-23T05:48:49;99105.22;;;1.03;100.00
8894;BME280;4483;48.622;9.230;2023-01-23T05:51:16;99109.34;;;0.96;100.00
8894;BME280;4483;48.622;9.230;2023-01-23T05:53:43;99106.69;;;0.90;100.00
8894;BME280;4483;48.622;9.230;2023-01-23T05:56:10;99120.25;;;0.92;100.00
8894;BME280;4483;48.622;9.230;2023-01-23T05:58:37;99116.03;;;0.91;100.00
8894;BME280;4483;48.622;9.230;2023-01-23T06:01:04;99123.66;;;0.93;100.00
8894;BME280;4483;48.622;9.230;2023-01-23T06:03:31;99119.50;;;0.96;100.00
8894;BME280;4483;48.622;9.230;2023-01-23T06:06:00;99121.16;;;0.94;100.00
8894;BME280;4483;48.622;9.230;2023-01-23T06:08:27;99127.09;;;0.96;100.00
8894;BME280;4483;48.622;9.230;2023-01-23T06:10:56;99132.19;;;0.96;100.00
8894;BME280;4483;48.622;9.230;2023-01-23T06:13:23;99122.91;;;0.97;100.00
8894;BME280;4483;48.622;9.230;2023-01-23T06:15:50;99128.81;;;0.97;100.00
8894;BME280;4483;48.622;9.230;2023-01-23T06:18:17;99138.94;;;0.97;100.00
8894;BME280;4483;48.622;9.230;2023-01-23T06:20:44;99144.00;;;0.96;100.00
8894;BME280;4483;48.622;9.230;2023-01-23T06:23:12;99132.06;;;0.90;100.00
8894;BME280;4483;48.622;9.230;2023-01-23T06:25:39;99140.56;;;0.92;100.00
8894;BME280;4483;48.622;9.230;2023-01-23T06:28:06;99147.34;;;0.93;100.00
8894;BME280;4483;48.622;9.230;2023-01-23T06:30:33;99146.50;;;0.93;100.00
8894;BME280;4483;48.622;9.230;2023-01-23T06:32:59;99153.28;;;0.94;100.00
8894;BME280;4483;48.622;9.230;2023-01-23T06:35:26;99154.09;;;0.91;100.00
8894;BME280;4483;48.622;9.230;2023-01-23T06:37:53;99149.84;;;0.92;100.00
8894;BME280;4483;48.622;9.230;2023-01-23T06:40:21;99153.28;;;0.94;100.00
8894;BME280;4483;48.622;9.230;2023-01-23T06:42:47;99162.56;;;0.93;100.00
8894;BME280;4483;48.622;9.230;2023-01-23T06:45:15;99169.34;;;0.94;100.00
8894;BME280;4483;48.622;9.230;2023-01-23T06:47:41;99167.69;;;0.95;100.00
8894;BME280;4483;48.622;9.230;2023-01-23T06:50:09;99181.19;;;0.95;100.00
8894;BME280;4483;48.622;9.230;2023-01-23T06:52:36;99181.19;;;0.94;100.00
8894;BME280;4483;48.622;9.230;2023-01-23T06:55:03;99185.44;;;0.95;100.00
8894;BME280;4483;48.622;9.230;2023-01-23T06:57:32;99189.69;;;0.96;100.00
8894;BME280;4483;48.622;9.230;2023-01-23T06:59:59;99189.63;;;0.91;100.00
8894;BME280;4483;48.622;9.230;2023-01-23T07:02:25;99197.22;;;0.91;100.00
8894;BME280;4483;48.622;9.230;2023-01-23T07:04:52;99192.97;;;0.90;100.00
8894;BME280;4483;48.622;9.230;2023-01-23T07:07:19;99197.97;;;0.87;100.00
8894;BME280;4483;48.622;9.230;2023-01-23T07:09:45;99197.09;;;0.85;100.00
8894;BME280;4483;48.622;9.230;2023-01-23T07:12:12;99201.28;;;0.83;100.00
8894;BME280;4483;48.622;9.230;2023-01-23T07:14:40;99198.75;;;0.83;100.00
8894;BME280;4483;48.622;9.230;2023-01-23T07:17:07;99202.06;;;0.81;100.00
8894;BME280;4483;48.622;9.230;2023-01-23T07:19:33;99205.50;;;0.83;100.00
8894;BME280;4483;48.622;9.230;2023-01-23T07:22:00;99206.34;;;0.83;100.00
8894;BME280;4483;48.622;9.230;2023-01-23T07:24:27;99198.63;;;0.77;100.00
8894;BME280;4483;48.622;9.230;2023-01-23T07:26:56;99210.47;;;0.77;100.00
8894;BME280;4483;48.622;9.230;2023-01-23T07:29:22;99207.03;;;0.75;100.00
8894;BME280;4483;48.622;9.230;2023-01-23T07:31:50;99204.53;;;0.76;100.00
8894;BME280;4483;48.622;9.230;2023-01-23T07:34:17;99207.97;;;0.78;100.00
8894;BME280;4483;48.622;9.230;2023-01-23T07:36:43;99207.97;;;0.78;100.00
8894;BME280;4483;48.622;9.230;2023-01-23T07:39:10;99203.69;;;0.77;100.00
8894;BME280;4483;48.622;9.230;2023-01-23T07:41:37;99202.88;;;0.78;100.00
8894;BME280;4483;48.622;9.230;2023-01-23T07:44:03;99205.34;;;0.75;100.00
8894;BME280;4483;48.622;9.230;2023-01-23T07:46:30;99202.03;;;0.78;100.00
8894;BME280;4483;48.622;9.230;2023-01-23T07:48:58;99200.41;;;0.81;100.00
8894;BME280;4483;48.622;9.230;2023-01-23T07:51:24;99197.78;;;0.77;100.00
8894;BME280;4483;48.622;9.230;2023-01-23T07:53:51;99196.03;;;0.74;100.00
8894;BME280;4483;48.622;9.230;2023-01-23T07:56:18;99207.03;;;0.75;100.00
8894;BME280;4483;48.622;9.230;2023-01-23T07:58:48;99206.19;;;0.74;100.00
8894;BME280;4483;48.622;9.230;2023-01-23T08:01:14;99203.66;;;0.74;100.00
8894;BME280;4483;48.622;9.230;2023-01-23T08:03:41;99202.88;;;0.78;100.00
8894;BME280;4483;48.622;9.230;2023-01-23T08:06:09;99204.59;;;0.81;100.00
8894;BME280;4483;48.622;9.230;2023-01-23T08:08:37;99198.75;;;0.83;100.00
8894;BME280;4483;48.622;9.230;2023-01-23T08:11:04;99193.69;;;0.85;100.00
8894;BME280;4483;48.622;9.230;2023-01-23T08:13:31;99193.00;;;0.93;100.00
8894;BME280;4483;48.622;9.230;2023-01-23T08:15:58;99191.41;;;0.97;100.00
8894;BME280;4483;48.622;9.230;2023-01-23T08:18:25;99201.59;;;0.98;100.00
8894;BME280;4483;48.622;9.230;2023-01-23T08:20:52;99203.34;;;1.02;100.00
8894;BME280;4483;48.622;9.230;2023-01-23T08:23:23;99194.88;;;1.02;100.00
8894;BME280;4483;48.622;9.230;2023-01-23T08:25:51;99202.53;;;1.05;100.00
8894;BME280;4483;48.622;9.230;2023-01-23T08:28:18;99195.81;;;1.07;100.00
8894;BME280;4483;48.622;9.230;2023-01-23T08:30:45;99201.72;;;1.06;100.00
8894;BME280;4483;48.622;9.230;2023-01-23T08:33:11;99197.59;;;1.11;100.00
8894;BME280;4483;48.622;9.230;2023-01-23T08:35:38;99190.88;;;1.15;100.00
8894;BME280;4483;48.622;9.230;2023-01-23T08:38:04;99199.41;;;1.18;100.00
8894;BME280;4483;48.622;9.230;2023-01-23T08:40:36;99206.25;;;1.24;100.00
8894;BME280;4483;48.622;9.230;2023-01-23T08:43:02;99202.97;;;1.28;100.00
8894;BME280;4483;48.622;9.230;2023-01-23T08:45:29;99194.50;;;1.29;100.00
8894;BME280;4483;48.622;9.230;2023-01-23T08:47:56;99198.78;;;1.30;100.00
8894;BME280;4483;48.622;9.230;2023-01-23T08:50:23;99203.88;;;1.33;100.00
8894;BME280;4483;48.622;9.230;2023-01-23T08:52:49;99212.38;;;1.33;100.00
8894;BME280;4483;48.622;9.230;2023-01-23T08:55:16;99211.50;;;1.33;100.00
8894;BME280;4483;48.622;9.230;2023-01-23T08:57:44;99223.28;;;1.29;100.00
8894;BME280;4483;48.622;9.230;2023-01-23T09:00:11;99209.81;;;1.32;100.00
8894;BME280;4483;48.622;9.230;2023-01-23T09:02:38;99209.84;;;1.35;100.00
8894;BME280;4483;48.622;9.230;2023-01-23T09:05:06;99209.00;;;1.36;100.00
8894;BME280;4483;48.622;9.230;2023-01-23T09:07:32;99208.19;;;1.37;100.00
8894;BME280;4483;48.622;9.230;2023-01-23T09:10:01;99202.34;;;1.41;100.00
8894;BME280;4483;48.622;9.230;2023-01-23T09:12:27;99200.75;;;1.47;100.00
8894;BME280;4483;48.622;9.230;2023-01-23T09:14:55;99197.44;;;1.51;100.00
8894;BME280;4483;48.622;9.230;2023-01-23T09:17:22;99195.03;;;1.59;100.00
8894;BME280;4483;48.622;9.230;2023-01-23T09:19:49;99192.56;;;1.65;100.00
8894;BME280;4483;48.622;9.230;2023-01-23T09:22:15;99190.97;;;1.70;100.00
8894;BME280;4483;48.622;9.230;2023-01-23T09:24:42;99194.44;;;1.75;100.00
8894;BME280;4483;48.622;9.230;2023-01-23T09:27:09;99200.41;;;1.78;100.00
8894;BME280;4483;48.622;9.230;2023-01-23T09:29:36;99215.59;;;1.74;98.94
8894;BME280;4483;48.622;9.230;2023-01-23T09:32:04;99214.56;;;1.63;98.80
8894;BME280;4483;48.622;9.230;2023-01-23T09:34:31;99208.63;;;1.62;100.00
8894;BME280;4483;48.622;9.230;2023-01-23T09:36:58;99225.59;;;1.65;100.00
8894;BME280;4483;48.622;9.230;2023-01-23T09:39:24;99220.50;;;1.63;99.63
8894;BME280;4483;48.622;9.230;2023-01-23T09:41:51;99218.81;;;1.64;99.76
8894;BME280;4483;48.622;9.230;2023-01-23T09:44:20;99223.09;;;1.66;99.04
8894;BME280;4483;48.622;9.230;2023-01-23T09:46:50;99216.28;;;1.64;98.98
8894;BME280;4483;48.622;9.230;2023-01-23T09:49:24;99212.97;;;1.68;98.76
8894;BME280;4483;48.622;9.230;2023-01-23T09:51:55;99224.94;;;1.75;98.91
8894;BME280;4483;48.622;9.230;2023-01-23T09:54:30;99215.59;;;1.74;97.51
8894;BME280;4483;48.622;9.230;2023-01-23T09:57:00;99213.91;;;1.76;97.84
8894;BME280;4483;48.622;9.230;2023-01-23T09:59:34;99216.47;;;1.76;95.31
8894;BME280;4483;48.622;9.230;2023-01-23T10:02:01;99209.84;;;1.87;97.17
8894;BME280;4483;48.622;9.230;2023-01-23T10:04:30;99211.75;;;2.00;95.36
8894;BME280;4483;48.622;9.230;2023-01-23T10:07:18;99206.94;;;2.18;96.17
8894;BME280;4483;48.622;9.230;2023-01-23T10:10:01;99207.03;;;2.26;93.18
8894;BME280;4483;48.622;9.230;2023-01-23T10:12:38;99212.09;;;2.21;92.52
8894;BME280;4483;48.622;9.230;2023-01-23T10:15:28;99214.63;;;2.20;92.22
8894;BME280;4483;48.622;9.230;2023-01-23T10:18:09;99208.66;;;2.19;92.32
8894;BME280;4483;48.622;9.230;2023-01-23T10:20:50;99212.22;;;2.30;93.01
8894;BME280;4483;48.622;9.230;2023-01-23T10:23:31;99206.47;;;2.43;93.05
8894;BME280;4483;48.622;9.230;2023-01-23T10:26:02;99203.84;;;2.40;89.81
8894;BME280;4483;48.622;9.230;2023-01-23T10:28:33;99211.56;;;2.45;89.90
8894;BME280;4483;48.622;9.230;2023-01-23T10:31:06;99211.56;;;2.45;89.11
8894;BME280;4483;48.622;9.230;2023-01-23T10:33:40;99202.16;;;2.39;90.31
8894;BME280;4483;48.622;9.230;2023-01-23T10:36:19;99205.50;;;2.37;90.38
8894;BME280;4483;48.622;9.230;2023-01-23T10:38:51;99194.31;;;2.24;88.37
8894;BME280;4483;48.622;9.230;2023-01-23T10:41:20;99199.44;;;2.27;90.07
8894;BME280;4483;48.622;9.230;2023-01-23T10:43:48;99195.94;;;2.19;88.75
8894;BME280;4483;48.622;9.230;2023-01-23T10:46:17;99183.13;;;2.12;87.52
8894;BME280;4483;48.622;9.230;2023-01-23T10:48:45;99184.88;;;2.14;89.22
8894;BME280;4483;48.622;9.230;2023-01-23T10:51:34;99189.19;;;2.21;90.55
8894;BME280;4483;48.622;9.230;2023-01-23T10:54:08;99181.50;;;2.18;88.97
8894;BME280;4483;48.622;9.230;2023-01-23T10:56:40;99189.22;;;2.23;90.28
8894;BME280;4483;48.622;9.230;2023-01-23T10:59:27;99185.94;;;2.31;90.88
8894;BME280;4483;48.622;9.230;2023-01-23T11:02:01;99186.91;;;2.39;89.71
8894;BME280;4483;48.622;9.230;2023-01-23T11:04:30;99180.16;;;2.44;90.30
8894;BME280;4483;48.622;9.230;2023-01-23T11:07:05;99173.50;;;2.54;88.00
8894;BME280;4483;48.622;9.230;2023-01-23T11:09:44;99184.50;;;2.51;88.25
8894;BME280;4483;48.622;9.230;2023-01-23T11:12:16;99165.91;;;2.55;88.58
8894;BME280;4483;48.622;9.230;2023-01-23T11:14:43;99157.38;;;2.50;88.08
8894;BME280;4483;48.622;9.230;2023-01-23T11:17:16;99154.84;;;2.55;89.22
8894;BME280;4483;48.622;9.230;2023-01-23T11:19:45;99163.34;;;2.54;88.37
8894;BME280;4483;48.622;9.230;2023-01-23T11:22:38;99167.53;;;2.49;89.03
8894;BME280;4483;48.622;9.230;2023-01-23T11:25:26;99168.31;;;2.45;88.89
8894;BME280;4483;48.622;9.230;2023-01-23T11:27:57;99160.66;;;2.43;89.31
8894;BME280;4483;48.622;9.230;2023-01-23T11:30:31;99164.94;;;2.47;89.63
8894;BME280;4483;48.622;9.230;2023-01-23T11:33:09;99160.72;;;2.48;90.16
8894;BME280;4483;48.622;9.230;2023-01-23T11:35:49;99158.97;;;2.44;90.03
8894;BME280;4483;48.622;9.230;2023-01-23T11:38:24;99154.72;;;2.41;90.04
8894;BME280;4483;48.622;9.230;2023-01-23T11:40:51;99159.78;;;2.40;89.64
8894;BME280;4483;48.622;9.230;2023-01-23T11:43:18;99153.03;;;2.43;90.05
8894;BME280;4483;48.622;9.230;2023-01-23T11:46:02;99157.34;;;2.49;90.37
8894;BME280;4483;48.622;9.230;2023-01-23T11:48:44;99148.06;;;2.54;90.03
8894;BME280;4483;48.622;9.230;2023-01-23T11:51:15;99149.75;;;2.53;89.36
8894;BME280;4483;48.622;9.230;2023-01-23T11:53:55;99144.66;;;2.52;90.14
8894;BME280;4483;48.622;9.230;2023-01-23T11:59:30;99145.56;;;2.57;90.11
8894;BME280;4483;48.622;9.230;2023-01-23T12:02:30;99142.13;;;2.55;89.92
8894;BME280;4483;48.622;9.230;2023-01-23T12:05:21;99148.16;;;2.60;90.35
8894;BME280;4483;48.622;9.230;2023-01-23T12:07:58;99134.56;;;2.59;90.04
8894;BME280;4483;48.622;9.230;2023-01-23T12:10:36;99131.22;;;2.63;89.83
8894;BME280;4483;48.622;9.230;2023-01-23T12:13:16;99124.56;;;2.74;90.48
8894;BME280;4483;48.622;9.230;2023-01-23T12:16:01;99113.69;;;2.89;89.27
8894;BME280;4483;48.622;9.230;2023-01-23T12:18:36;99102.75;;;3.00;89.80
8894;BME280;4483;48.622;9.230;2023-01-23T12:21:10;99102.88;;;3.14;89.23
8894;BME280;4483;48.622;9.230;2023-01-23T12:24:01;99091.09;;;3.24;89.03
8894;BME280;4483;48.622;9.230;2023-01-23T12:26:33;99093.72;;;3.34;87.87
8894;BME280;4483;48.622;9.230;2023-01-23T12:29:29;99084.44;;;3.42;88.03
8894;BME280;4483;48.622;9.230;2023-01-23T12:32:10;99076.00;;;3.52;88.17
8894;BME280;4483;48.622;9.230;2023-01-23T12:34:51;99082.91;;;3.67;87.08
8894;BME280;4483;48.622;9.230;2023-01-23T12:37:39;99075.34;;;3.85;87.16
8894;BME280;4483;48.622;9.230;2023-01-23T12:40:12;99075.44;;;4.03;86.81
8894;BME280;4483;48.622;9.230;2023-01-23T12:42:46;99076.31;;;4.05;86.12
8894;BME280;4483;48.622;9.230;2023-01-23T12:45:20;99072.91;;;4.01;85.94
8894;BME280;4483;48.622;9.230;2023-01-23T12:47:52;99075.34;;;3.85;83.34
8894;BME280;4483;48.622;9.230;2023-01-23T12:50:28;99072.75;;;3.70;85.01
8894;BME280;4483;48.622;9.230;2023-01-23T12:53:04;99070.91;;;3.54;85.04
8894;BME280;4483;48.622;9.230;2023-01-23T12:55:35;99059.78;;;3.37;85.76
8894;BME280;4483;48.622;9.230;2023-01-23T12:58:06;99071.59;;;3.30;86.24
8894;BME280;4483;48.622;9.230;2023-01-23T13:00:48;99075.81;;;3.22;86.48
8894;BME280;4483;48.622;9.230;2023-01-23T13:03:43;99068.09;;;3.15;86.93
8894;BME280;4483;48.622;9.230;2023-01-23T13:06:25;99068.03;;;3.07;87.41
8894;BME280;4483;48.622;9.230;2023-01-23T13:08:58;99060.31;;;2.98;87.50
8894;BME280;4483;48.622;9.230;2023-01-23T13:11:35;99068.78;;;2.95;87.99
8894;BME280;4483;48.622;9.230;2023-01-23T13:14:20;99073.00;;;2.93;88.47
8894;BME280;4483;48.622;9.230;2023-01-23T13:16:49;99063.69;;;2.95;88.53
8894;BME280;4483;48.622;9.230;2023-01-23T13:19:22;99067.88;;;2.90;88.44
8894;BME280;4483;48.622;9.230;2023-01-23T13:22:22;99061.91;;;2.88;88.71
8894;BME280;4483;48.622;9.230;2023-01-23T13:24:50;99067.06;;;2.94;88.72
8894;BME280;4483;48.622;9.230;2023-01-23T13:27:41;99066.22;;;2.95;88.70
8894;BME280;4483;48.622;9.230;2023-01-23T13:30:39;99070.50;;;2.98;89.14
8894;BME280;4483;48.622;9.230;2023-01-23T13:36:24;99060.34;;;3.01;88.93
8894;BME280;4483;48.622;9.230;2023-01-23T13:39:03;99062.00;;;2.99;89.46
8894;BME280;4483;48.622;9.230;2023-01-23T13:41:31;99062.81;;;2.95;89.57
8894;BME280;4483;48.622;9.230;2023-01-23T13:44:03;99060.25;;;2.90;89.10
8894;BME280;4483;48.622;9.230;2023-01-23T13:46:44;99056.81;;;2.88;89.45
8894;BME280;4483;48.622;9.230;2023-01-23T13:49:20;99055.09;;;2.84;89.77